C Side — GCRQ — position and weather

sailwx.info

Track history (hours):
 
Tides and Currents Weather Stations Pressure Air Temp Water Temp Dewpoint Dewpoint Depression Visibility Wind Speed Wind Dir Waves Ship Positions

C Side

Last reported at 2018-Jul-15 01:22 UTC. Time now 2018-Jul-17 05:41 UTC.
Position N 41°09' E 009°32'.

Length 35 m; draft 2.6 m.

Type: Pleasure craft. MMSI: 235019268.

Date/timePositionNaut miles runAvg speedWind from/ knotsBaromVisibWave heightAir tempDewpointWater temp
2018-Jul-15 01:22N 41°09' E 009°32'6 0.7
2018-Jul-14 16:26N 41°03' E 009°35'1 3.4
2018-Jul-14 16:00N 41°01' E 009°35'0 0.0
2018-Jul-14 15:30N 41°01' E 009°35'0 0.0
2018-Jul-14 15:00N 41°01' E 009°35'0 0.0
2018-Jul-14 14:30N 41°01' E 009°35'0 0.0
2018-Jul-14 13:30N 41°01' E 009°35'0 0.0
2018-Jul-14 13:00N 41°01' E 009°35'3 3.7
2018-Jul-14 12:09N 41°01' E 009°39'210.0
2018-Jul-14 11:59N 40°59' E 009°40'510.6
2018-Jul-14 11:30N 40°54' E 009°40'2 4.3
2018-Jul-14 10:59N 40°52' E 009°40'0 0.0
2018-Jul-14 10:28N 40°52' E 009°40'0 0.0
2018-Jul-14 10:00N 40°52' E 009°40'0 0.0
2018-Jul-14 09:30N 40°52' E 009°40'1 0.6
2018-Jul-14 08:21N 40°52' E 009°41'2 5.6
2018-Jul-14 07:58N 40°51' E 009°43'0 0.0
2018-Jul-14 07:26N 40°51' E 009°43'0 0.0
2018-Jul-14 05:09N 40°51' E 009°43'0 0.0
2018-Jul-14 05:00N 40°51' E 009°43'0 0.0
2018-Jul-14 03:47N 40°51' E 009°43'0 0.0
2018-Jul-14 02:39N 40°51' E 009°43'0 0.0
2018-Jul-14 02:14N 40°51' E 009°43'0 0.0
2018-Jul-14 02:00N 40°51' E 009°43'0 0.0
2018-Jul-14 01:06N 40°51' E 009°43'0 0.0
2018-Jul-14 00:53N 40°51' E 009°43'0 0.0
2018-Jul-14 00:30N 40°51' E 009°43'0 0.0
2018-Jul-13 22:19N 40°51' E 009°43'0 0.0
2018-Jul-13 21:55N 40°51' E 009°43'0 0.0
2018-Jul-13 21:24N 40°51' E 009°43'0 0.0
2018-Jul-13 17:53N 40°51' E 009°43'0 0.0
2018-Jul-13 17:30N 40°51' E 009°43'0 0.4
2018-Jul-13 17:00N 40°51' E 009°43'2 4.1
2018-Jul-13 16:28N 40°49' E 009°41'0 0.0
2018-Jul-13 15:32N 40°49' E 009°41'0 0.2
2018-Jul-13 15:30N 40°49' E 009°41'0 0.0
2018-Jul-13 13:52N 40°49' E 009°41'0 0.0
2018-Jul-13 13:25N 40°49' E 009°41'0 0.0
2018-Jul-13 13:00N 40°49' E 009°41'0 0.0
2018-Jul-13 12:30N 40°49' E 009°41'0 0.0
2018-Jul-13 11:56N 40°49' E 009°41'4 1.9
2018-Jul-13 09:52N 40°53' E 009°41'0 0.1
2018-Jul-13 09:30N 40°53' E 009°41'0 0.0
2018-Jul-13 07:02N 40°53' E 009°41'0 0.0
2018-Jul-13 07:00N 40°53' E 009°41'  
Track history (hours):
 
Tides and Currents Weather Stations Pressure Air Temp Water Temp Dewpoint Dewpoint Depression Visibility Wind Speed Wind Dir Waves Ship Positions

C Side

Last reported at 2018-Jul-15 01:22 UTC. Time now 2018-Jul-17 05:41 UTC.
Position N 41°09' E 009°32'.

Length 35 m; draft 2.6 m.

Type: Pleasure craft. MMSI: 235019268.

Date/timePositionNaut miles runAvg speedWind from/ knotsBaromVisibWave heightAir tempDewpointWater temp
2018-Jul-15 01:22N 41°09' E 009°32'6 0.7
2018-Jul-14 16:26N 41°03' E 009°35'1 3.4
2018-Jul-14 16:00N 41°01' E 009°35'0 0.0
2018-Jul-14 15:30N 41°01' E 009°35'0 0.0
2018-Jul-14 15:00N 41°01' E 009°35'0 0.0
2018-Jul-14 14:30N 41°01' E 009°35'0 0.0
2018-Jul-14 13:30N 41°01' E 009°35'0 0.0
2018-Jul-14 13:00N 41°01' E 009°35'3 3.7
2018-Jul-14 12:09N 41°01' E 009°39'210.0
2018-Jul-14 11:59N 40°59' E 009°40'510.6
2018-Jul-14 11:30N 40°54' E 009°40'2 4.3
2018-Jul-14 10:59N 40°52' E 009°40'0 0.0
2018-Jul-14 10:28N 40°52' E 009°40'0 0.0
2018-Jul-14 10:00N 40°52' E 009°40'0 0.0
2018-Jul-14 09:30N 40°52' E 009°40'1 0.6
2018-Jul-14 08:21N 40°52' E 009°41'2 5.6
2018-Jul-14 07:58N 40°51' E 009°43'0 0.0
2018-Jul-14 07:26N 40°51' E 009°43'0 0.0
2018-Jul-14 05:09N 40°51' E 009°43'0 0.0
2018-Jul-14 05:00N 40°51' E 009°43'0 0.0
2018-Jul-14 03:47N 40°51' E 009°43'0 0.0
2018-Jul-14 02:39N 40°51' E 009°43'0 0.0
2018-Jul-14 02:14N 40°51' E 009°43'0 0.0
2018-Jul-14 02:00N 40°51' E 009°43'0 0.0
2018-Jul-14 01:06N 40°51' E 009°43'0 0.0
2018-Jul-14 00:53N 40°51' E 009°43'0 0.0
2018-Jul-14 00:30N 40°51' E 009°43'0 0.0
2018-Jul-13 22:19N 40°51' E 009°43'0 0.0
2018-Jul-13 21:55N 40°51' E 009°43'0 0.0
2018-Jul-13 21:24N 40°51' E 009°43'0 0.0
2018-Jul-13 17:53N 40°51' E 009°43'0 0.0
2018-Jul-13 17:30N 40°51' E 009°43'0 0.4
2018-Jul-13 17:00N 40°51' E 009°43'2 4.1
2018-Jul-13 16:28N 40°49' E 009°41'0 0.0
2018-Jul-13 15:32N 40°49' E 009°41'0 0.2
2018-Jul-13 15:30N 40°49' E 009°41'0 0.0
2018-Jul-13 13:52N 40°49' E 009°41'0 0.0
2018-Jul-13 13:25N 40°49' E 009°41'0 0.0
2018-Jul-13 13:00N 40°49' E 009°41'0 0.0
2018-Jul-13 12:30N 40°49' E 009°41'0 0.0
2018-Jul-13 11:56N 40°49' E 009°41'4 1.9
2018-Jul-13 09:52N 40°53' E 009°41'0 0.1
2018-Jul-13 09:30N 40°53' E 009°41'0 0.0
2018-Jul-13 07:02N 40°53' E 009°41'0 0.0
2018-Jul-13 07:00N 40°53' E 009°41'  

Dump ship's entire track history